Time;durP1;ratioP1;P1;durP2;ratioP2;P2;SDS_P1;SDS_P2;PMS_P1;PMS_P2;Temp;Humidity;BMP_temperature;BMP_pressure;BME280_temperature;BME280_humidity;BME280_pressure;Samples;Min_cycle;Max_cycle;Signal;HPM_P1;HPM_P2
2021/09/20 00:02:02;;;;;;;10.27;4.60;;;15.50;92.30;;;;;;5072203;28;20139;-66
2021/09/20 00:04:30;;;;;;;7.15;4.78;;;15.40;92.20;;;;;;5063407;28;20413;-66
2021/09/20 00:06:57;;;;;;;5.85;4.53;;;15.40;92.30;;;;;;5056378;28;20041;-66
2021/09/20 00:09:24;;;;;;;8.23;5.28;;;15.40;92.40;;;;;;5049256;28;20438;-66
2021/09/20 00:11:51;;;;;;;5.78;4.40;;;15.40;92.30;;;;;;5068915;28;20072;-66
2021/09/20 00:14:18;;;;;;;6.95;5.05;;;15.30;92.10;;;;;;5072546;28;20053;-66
2021/09/20 00:16:45;;;;;;;7.18;5.15;;;15.40;92.40;;;;;;5044154;28;20048;-66
2021/09/20 00:19:12;;;;;;;6.25;4.95;;;15.40;92.10;;;;;;5050847;28;20142;-66
2021/09/20 00:21:39;;;;;;;8.18;5.53;;;15.40;91.90;;;;;;5063303;28;20415;-65
2021/09/20 00:24:06;;;;;;;7.90;4.80;;;15.40;91.80;;;;;;5073676;28;20045;-66
2021/09/20 00:26:33;;;;;;;8.65;5.30;;;15.40;91.70;;;;;;5079629;28;20083;-66
2021/09/20 00:29:00;;;;;;;7.45;4.78;;;15.30;91.60;;;;;;5058853;28;20044;-66
2021/09/20 00:31:27;;;;;;;8.18;4.85;;;15.30;91.60;;;;;;5053863;28;20040;-66
2021/09/20 00:33:54;;;;;;;9.25;5.15;;;15.30;91.90;;;;;;5064419;28;20114;-65
2021/09/20 00:36:21;;;;;;;6.20;4.93;;;15.30;91.60;;;;;;5071434;28;20051;-65
2021/09/20 00:38:48;;;;;;;6.88;5.25;;;15.20;91.70;;;;;;5055127;28;20074;-66
2021/09/20 00:41:15;;;;;;;7.60;5.13;;;15.20;91.50;;;;;;5074110;28;20080;-66
2021/09/20 00:43:42;;;;;;;11.45;6.40;;;15.20;91.60;;;;;;5042006;28;20052;-66
2021/09/20 00:46:09;;;;;;;8.10;4.97;;;15.20;91.50;;;;;;5059565;28;20044;-66
2021/09/20 00:48:36;;;;;;;6.50;5.28;;;15.20;91.50;;;;;;5071455;28;20120;-66
2021/09/20 00:51:03;;;;;;;6.38;5.10;;;15.20;91.40;;;;;;5084483;28;20140;-68
2021/09/20 00:53:30;;;;;;;7.55;5.05;;;15.10;91.60;;;;;;5037437;28;20068;-66
2021/09/20 00:55:57;;;;;;;7.43;4.80;;;15.10;91.50;;;;;;5069243;28;20040;-66
2021/09/20 00:58:24;;;;;;;7.95;5.60;;;15.10;91.50;;;;;;5056548;28;20046;-67
2021/09/20 01:00:51;;;;;;;7.75;5.03;;;15.10;91.50;;;;;;5074055;28;20040;-67
2021/09/20 01:03:18;;;;;;;7.50;5.35;;;15.10;91.40;;;;;;5056609;28;20080;-66
2021/09/20 01:05:45;;;;;;;6.78;5.10;;;15.10;91.50;;;;;;5049821;28;20127;-65
2021/09/20 01:08:12;;;;;;;7.32;5.13;;;15.00;91.60;;;;;;5040814;28;20036;-67
2021/09/20 01:10:39;;;;;;;7.63;4.53;;;15.00;91.70;;;;;;5053191;28;20071;-67
2021/09/20 01:13:06;;;;;;;5.18;4.38;;;15.00;91.40;;;;;;5052104;28;20044;-66
2021/09/20 01:15:33;;;;;;;8.98;4.68;;;15.00;91.50;;;;;;5044998;28;20082;-66
2021/09/20 01:18:00;;;;;;;6.97;4.05;;;15.00;91.60;;;;;;5064880;28;20125;-67
2021/09/20 01:20:28;;;;;;;6.60;4.20;;;15.00;91.40;;;;;;5054430;28;20799;-67
2021/09/20 01:23:02;;;;;;;5.18;3.08;;;15.00;91.60;;;;;;5040826;28;20045;-66
2021/09/20 01:25:29;;;;;;;6.40;3.65;;;14.90;91.30;;;;;;5051940;28;20083;-67
2021/09/20 01:27:56;;;;;;;6.10;3.83;;;14.90;91.40;;;;;;5077480;28;20044;-66
2021/09/20 01:30:23;;;;;;;7.00;3.53;;;14.90;91.10;;;;;;5053591;28;20170;-66
2021/09/20 01:32:50;;;;;;;7.40;3.90;;;14.90;91.20;;;;;;5058552;28;20147;-66
2021/09/20 01:35:19;;;;;;;6.03;3.80;;;14.90;91.00;;;;;;5062912;28;20052;-66
2021/09/20 01:37:46;;;;;;;8.40;4.32;;;14.90;90.90;;;;;;5066078;28;20048;-66
2021/09/20 01:40:14;;;;;;;7.05;3.40;;;14.90;91.00;;;;;;5081439;28;20054;-66
2021/09/20 01:42:42;;;;;;;6.13;3.15;;;14.90;90.90;;;;;;5040419;28;20055;-66
2021/09/20 01:45:10;;;;;;;4.22;3.55;;;14.80;90.90;;;;;;5054707;28;20049;-66
2021/09/20 01:47:37;;;;;;;5.13;3.60;;;14.80;91.10;;;;;;5070334;28;20082;-67
2021/09/20 01:50:06;;;;;;;7.90;3.80;;;14.80;91.00;;;;;;5045009;28;20177;-66
2021/09/20 01:52:33;;;;;;;7.28;3.67;;;14.80;90.90;;;;;;5041830;28;20056;-65
2021/09/20 01:55:01;;;;;;;6.13;3.35;;;14.80;90.90;;;;;;5051658;28;20123;-66
2021/09/20 01:57:28;;;;;;;6.32;2.90;;;14.80;90.90;;;;;;5058345;28;20044;-67
2021/09/20 01:59:55;;;;;;;11.05;4.03;;;14.90;91.20;;;;;;5051076;28;20040;-65
2021/09/20 02:02:22;;;;;;;4.65;3.55;;;14.80;90.60;;;;;;5061516;28;20384;-66
2021/09/20 02:04:49;;;;;;;7.80;3.30;;;14.80;90.70;;;;;;5073966;28;20051;-66
2021/09/20 02:07:16;;;;;;;7.50;3.33;;;14.80;90.60;;;;;;5074563;28;20053;-66
2021/09/20 02:09:43;;;;;;;6.35;3.50;;;14.80;90.50;;;;;;5081318;28;20102;-66
2021/09/20 02:12:10;;;;;;;5.75;2.70;;;14.80;90.50;;;;;;5062108;28;20059;-65
2021/09/20 02:14:38;;;;;;;5.53;2.85;;;14.80;90.40;;;;;;5065220;28;20123;-65
2021/09/20 02:17:05;;;;;;;3.45;2.80;;;14.80;90.20;;;;;;5062616;28;20123;-66
2021/09/20 02:19:32;;;;;;;6.65;3.00;;;14.80;90.80;;;;;;5089483;28;20095;-67
2021/09/20 02:21:59;;;;;;;3.75;2.75;;;14.70;90.30;;;;;;5073036;28;20507;-66
2021/09/20 02:24:26;;;;;;;8.52;4.35;;;14.70;90.50;;;;;;5077716;28;20044;-66
2021/09/20 02:26:53;;;;;;;5.30;2.97;;;14.80;90.40;;;;;;5076281;28;20068;-66
2021/09/20 02:29:20;;;;;;;7.57;3.13;;;14.80;90.30;;;;;;5087369;28;20079;-66
2021/09/20 02:31:47;;;;;;;5.93;3.10;;;14.70;90.20;;;;;;5048699;28;20075;-66
2021/09/20 02:34:14;;;;;;;5.70;2.85;;;14.70;90.20;;;;;;5045425;28;20082;-66
2021/09/20 02:36:42;;;;;;;5.88;2.85;;;14.70;90.20;;;;;;5062485;28;20100;-66
2021/09/20 02:39:09;;;;;;;6.60;3.17;;;14.70;90.30;;;;;;5056290;28;20084;-66
2021/09/20 02:41:40;;;;;;;5.63;2.50;;;14.70;90.30;;;;;;5074484;28;20044;-67
2021/09/20 02:44:08;;;;;;;5.78;2.90;;;14.70;90.30;;;;;;5060220;28;20463;-68
2021/09/20 02:46:35;;;;;;;5.85;3.13;;;14.70;90.20;;;;;;5055279;28;20048;-67
2021/09/20 02:49:02;;;;;;;5.03;2.40;;;14.70;89.90;;;;;;5066216;28;20041;-68
2021/09/20 02:51:30;;;;;;;4.55;2.60;;;14.70;90.20;;;;;;5062903;28;20072;-68
2021/09/20 02:53:57;;;;;;;4.90;2.20;;;14.70;89.70;;;;;;5073884;28;20144;-67
2021/09/20 02:56:24;;;;;;;4.65;3.13;;;14.70;90.00;;;;;;5061118;28;20123;-67
2021/09/20 02:58:51;;;;;;;7.20;2.47;;;14.70;89.60;;;;;;5069994;28;20139;-67
2021/09/20 03:01:18;;;;;;;7.00;2.55;;;14.70;89.50;;;;;;5058123;28;20051;-69
2021/09/20 03:03:46;;;;;;;10.35;3.13;;;14.60;89.20;;;;;;5059442;28;20052;-67
2021/09/20 03:06:13;;;;;;;3.55;2.15;;;14.70;89.40;;;;;;5047325;28;20045;-67
2021/09/20 03:08:40;;;;;;;6.40;2.53;;;14.70;89.20;;;;;;5056450;28;20095;-67
2021/09/20 03:11:08;;;;;;;4.80;2.35;;;14.70;88.90;;;;;;5066035;28;20048;-67
2021/09/20 03:13:35;;;;;;;7.28;2.72;;;14.60;88.90;;;;;;5061138;28;20168;-67
2021/09/20 03:16:02;;;;;;;7.30;2.50;;;14.70;89.50;;;;;;5055132;28;20045;-67
2021/09/20 03:18:29;;;;;;;4.60;2.47;;;14.70;88.70;;;;;;5072362;28;20045;-66
2021/09/20 03:20:56;;;;;;;3.97;2.35;;;14.70;89.30;;;;;;5072065;28;20048;-66
2021/09/20 03:23:24;;;;;;;6.43;2.60;;;14.70;88.60;;;;;;5070604;28;20041;-67
2021/09/20 03:25:51;;;;;;;5.82;2.38;;;14.70;89.20;;;;;;5062106;28;20051;-66
2021/09/20 03:28:18;;;;;;;6.55;2.28;;;14.70;88.80;;;;;;5063769;28;20138;-67
2021/09/20 03:30:45;;;;;;;9.40;2.60;;;14.70;88.70;;;;;;5062256;28;20131;-67
2021/09/20 03:33:13;;;;;;;5.72;1.88;;;14.70;88.70;;;;;;5073345;28;20060;-66
2021/09/20 03:35:40;;;;;;;5.35;2.10;;;14.70;88.10;;;;;;5067520;28;20098;-67
2021/09/20 03:38:07;;;;;;;6.93;2.30;;;14.70;88.70;;;;;;5076713;28;20059;-66
2021/09/20 03:40:36;;;;;;;;;;;14.70;88.60;;;;;;5054927;28;20113;-66
2021/09/20 03:43:06;;;;;;;5.55;2.15;;;14.70;88.10;;;;;;5072051;28;19924;-67
2021/09/20 03:45:34;;;;;;;5.03;2.45;;;14.60;88.30;;;;;;5078062;28;20055;-66
2021/09/20 03:48:03;;;;;;;6.38;2.42;;;14.60;88.70;;;;;;5062790;28;20172;-67
2021/09/20 03:50:30;;;;;;;5.32;2.30;;;14.50;88.10;;;;;;5070954;28;20060;-67
2021/09/20 03:52:57;;;;;;;4.15;2.10;;;14.50;88.40;;;;;;5065048;28;20066;-66
2021/09/20 03:55:26;;;;;;;7.13;2.83;;;14.40;88.30;;;;;;5071216;28;20472;-67
2021/09/20 03:57:53;;;;;;;7.70;2.33;;;14.30;88.40;;;;;;5065425;28;20051;-66
2021/09/20 04:00:20;;;;;;;4.05;2.00;;;14.30;89.10;;;;;;5062585;28;20079;-67
2021/09/20 04:02:47;;;;;;;5.45;2.30;;;14.20;89.60;;;;;;5056437;28;20488;-66
2021/09/20 04:05:18;;;;;;;5.45;2.38;;;14.20;89.20;;;;;;5067342;28;20048;-67
2021/09/20 04:07:45;;;;;;;5.93;2.30;;;14.20;89.50;;;;;;5062107;28;20067;-67
2021/09/20 04:10:13;;;;;;;5.97;2.78;;;14.10;89.40;;;;;;5069815;28;20056;-66
2021/09/20 04:12:40;;;;;;;4.82;2.58;;;14.10;90.10;;;;;;5051450;28;20044;-67
2021/09/20 04:15:08;;;;;;;5.30;2.90;;;14.00;90.10;;;;;;5063152;28;20527;-66
2021/09/20 04:17:35;;;;;;;7.90;3.03;;;14.00;90.10;;;;;;5057447;28;20178;-66
2021/09/20 04:20:03;;;;;;;7.43;2.97;;;14.00;90.20;;;;;;5044837;28;20048;-67
2021/09/20 04:22:30;;;;;;;6.32;2.75;;;13.90;90.30;;;;;;5056584;28;20057;-67
2021/09/20 04:24:57;;;;;;;6.75;2.25;;;13.90;90.50;;;;;;5056865;28;20511;-68
2021/09/20 04:27:28;;;;;;;7.82;2.78;;;13.80;90.30;;;;;;5041988;28;20113;-66
2021/09/20 04:29:55;;;;;;;6.18;2.90;;;13.80;90.60;;;;;;5076799;28;20395;-66
2021/09/20 04:32:22;;;;;;;8.98;2.65;;;13.70;90.60;;;;;;5048893;28;20050;-67
2021/09/20 04:34:49;;;;;;;6.53;3.22;;;13.70;90.70;;;;;;5006749;28;20179;-67
2021/09/20 04:37:18;;;;;;;4.95;2.20;;;13.70;90.70;;;;;;5030244;28;20481;-66
2021/09/20 04:39:45;;;;;;;5.37;2.87;;;13.60;90.70;;;;;;5001469;28;20487;-67
2021/09/20 04:42:13;;;;;;;5.72;2.63;;;13.60;90.80;;;;;;5029220;28;20129;-66
2021/09/20 04:44:40;;;;;;;8.57;2.58;;;13.50;90.90;;;;;;5028093;28;20049;-66
2021/09/20 04:47:07;;;;;;;5.82;2.47;;;13.50;90.90;;;;;;5032883;28;20736;-66
2021/09/20 04:49:34;;;;;;;5.82;2.75;;;13.50;91.10;;;;;;5012887;28;20045;-66
2021/09/20 04:52:01;;;;;;;7.82;3.00;;;13.50;91.10;;;;;;5010787;28;20049;-66
2021/09/20 04:54:28;;;;;;;8.07;3.20;;;13.40;91.20;;;;;;5028604;28;20052;-66
2021/09/20 04:56:55;;;;;;;6.28;3.00;;;13.40;91.20;;;;;;5029308;28;20099;-66
2021/09/20 04:59:25;;;;;;;6.53;2.42;;;13.40;91.30;;;;;;5009296;28;20089;-66
2021/09/20 05:01:52;;;;;;;8.88;4.18;;;13.40;91.30;;;;;;5032420;28;20045;-66
2021/09/20 05:04:20;;;;;;;6.45;2.80;;;13.30;91.40;;;;;;5011566;28;20560;-67
2021/09/20 05:06:47;;;;;;;5.72;2.60;;;13.30;91.60;;;;;;5012102;28;20096;-66
2021/09/20 05:09:14;;;;;;;6.35;2.30;;;13.30;91.40;;;;;;5009493;28;20474;-66
2021/09/20 05:11:41;;;;;;;10.45;3.10;;;13.30;91.50;;;;;;5026839;28;20093;-66
2021/09/20 05:14:09;;;;;;;9.05;3.17;;;13.30;91.60;;;;;;5028136;28;20065;-67
2021/09/20 05:16:36;;;;;;;6.18;3.50;;;13.20;91.60;;;;;;5028773;28;20497;-67
2021/09/20 05:19:03;;;;;;;8.15;3.05;;;13.20;91.60;;;;;;5027812;28;20418;-67
2021/09/20 05:21:32;;;;;;;6.80;3.28;;;13.20;91.70;;;;;;5027006;28;20132;-66
2021/09/20 05:23:59;;;;;;;6.15;2.88;;;13.20;91.80;;;;;;5028269;28;20072;-67
2021/09/20 05:26:26;;;;;;;9.38;3.25;;;13.20;91.90;;;;;;5028323;28;20232;-66
2021/09/20 05:28:54;;;;;;;6.25;2.88;;;13.20;91.90;;;;;;5028373;28;20061;-66
2021/09/20 05:31:21;;;;;;;5.68;2.95;;;13.10;91.90;;;;;;5027805;28;20109;-66
2021/09/20 05:33:48;;;;;;;6.88;2.80;;;13.10;92.00;;;;;;5076071;28;20349;-66
2021/09/20 05:36:15;;;;;;;7.97;4.88;;;13.10;92.00;;;;;;5060623;28;20139;-66
2021/09/20 05:38:42;;;;;;;9.27;3.67;;;13.10;92.60;;;;;;5061036;28;20435;-67
2021/09/20 05:41:09;;;;;;;6.65;2.85;;;13.10;92.20;;;;;;5055781;28;20373;-67
2021/09/20 05:43:36;;;;;;;8.93;3.60;;;13.10;92.30;;;;;;5051612;28;20045;-66
2021/09/20 05:46:03;;;;;;;6.43;3.40;;;13.10;92.30;;;;;;5075146;28;20104;-66
2021/09/20 05:48:30;;;;;;;7.03;3.90;;;13.10;92.40;;;;;;5056103;28;20051;-67
2021/09/20 05:50:57;;;;;;;8.07;4.15;;;13.10;92.30;;;;;;5058853;28;20136;-68
2021/09/20 05:53:24;;;;;;;11.45;5.07;;;13.10;92.30;;;;;;5059140;28;20048;-66
2021/09/20 05:55:51;;;;;;;7.10;3.50;;;13.20;92.30;;;;;;5057376;28;20095;-66
2021/09/20 05:58:18;;;;;;;14.02;5.00;;;13.20;92.20;;;;;;5069165;28;20412;-66
2021/09/20 06:00:45;;;;;;;13.98;4.55;;;13.30;92.10;;;;;;5055365;28;20477;-66
2021/09/20 06:03:13;;;;;;;8.48;4.63;;;13.30;92.10;;;;;;5063788;28;20508;-66
2021/09/20 06:05:41;;;;;;;9.52;5.00;;;13.40;92.10;;;;;;5076262;28;20097;-67
2021/09/20 06:08:08;;;;;;;9.63;6.63;;;13.40;92.10;;;;;;5059132;28;20053;-66
2021/09/20 06:10:36;;;;;;;14.27;6.40;;;13.40;92.20;;;;;;5036311;28;20091;-66
2021/09/20 06:13:09;;;;;;;9.80;6.30;;;13.50;92.10;;;;;;5069841;28;20139;-68
2021/09/20 06:15:38;;;;;;;51.55;33.63;;;13.50;92.10;;;;;;5058261;28;20053;-66
2021/09/20 06:18:08;;;;;;;47.43;34.13;;;13.60;92.20;;;;;;5079959;28;20485;-66
2021/09/20 06:20:36;;;;;;;14.18;9.32;;;13.60;92.20;;;;;;5066738;28;20154;-71
2021/09/20 06:23:04;;;;;;;13.65;7.20;;;13.70;92.20;;;;;;5045579;28;20143;-66
2021/09/20 06:25:31;;;;;;;12.30;6.47;;;13.70;91.80;;;;;;5062759;28;20653;-68
2021/09/20 06:28:02;;;;;;;12.07;6.85;;;13.70;92.00;;;;;;5056281;28;20091;-68
2021/09/20 06:30:29;;;;;;;9.43;7.05;;;13.70;91.90;;;;;;5046352;28;20047;-68
2021/09/20 06:32:56;;;;;;;14.27;7.85;;;13.80;91.80;;;;;;5047357;28;20130;-68
2021/09/20 06:35:23;;;;;;;16.23;8.07;;;13.80;91.70;;;;;;5045160;28;20046;-74
2021/09/20 06:37:50;;;;;;;11.48;6.78;;;13.80;91.80;;;;;;5060961;28;20082;-69
2021/09/20 06:40:18;;;;;;;13.02;7.15;;;13.90;91.80;;;;;;5076444;28;20518;-69
2021/09/20 06:42:45;;;;;;;11.43;7.65;;;13.90;91.80;;;;;;5054652;28;20075;-69
2021/09/20 06:45:12;;;;;;;11.52;7.47;;;13.90;91.90;;;;;;5051443;28;20086;-69
2021/09/20 06:47:39;;;;;;;19.15;14.77;;;13.90;91.70;;;;;;5073073;28;20049;-69
2021/09/20 06:50:06;;;;;;;58.15;46.95;;;14.00;91.80;;;;;;5081274;28;20088;-73
2021/09/20 06:52:33;;;;;;;21.73;10.85;;;14.00;91.80;;;;;;5059604;28;20121;-65
2021/09/20 06:55:01;;;;;;;11.07;7.97;;;14.00;91.60;;;;;;5077242;28;20434;-65
2021/09/20 06:57:28;;;;;;;12.95;8.02;;;14.00;91.80;;;;;;5071120;28;20494;-65
2021/09/20 06:59:55;;;;;;;14.98;7.70;;;14.00;91.60;;;;;;5087991;28;20040;-66
2021/09/20 07:02:22;;;;;;;12.23;6.45;;;14.10;91.90;;;;;;5061907;28;20171;-69
2021/09/20 07:04:49;;;;;;;16.20;7.07;;;14.10;91.70;;;;;;5085716;28;20044;-69
2021/09/20 07:07:17;;;;;;;11.85;7.07;;;14.20;91.90;;;;;;5063222;28;20127;-68
2021/09/20 07:09:45;;;;;;;14.48;7.65;;;14.20;91.60;;;;;;5072359;28;20048;-69
2021/09/20 07:12:12;;;;;;;11.80;8.15;;;14.20;91.50;;;;;;5040242;28;20052;-67
2021/09/20 07:14:39;;;;;;;10.40;6.93;;;14.20;91.10;;;;;;5067951;28;20067;-67
2021/09/20 07:17:06;;;;;;;9.43;7.78;;;14.20;91.40;;;;;;5059811;28;20078;-68
2021/09/20 07:19:43;;;;;;;12.75;6.82;;;14.20;91.60;;;;;;5078827;28;20044;-68
2021/09/20 07:22:09;;;;;;;17.77;7.65;;;14.30;91.70;;;;;;5067114;28;20044;-68
2021/09/20 07:24:36;;;;;;;12.50;7.75;;;14.40;91.20;;;;;;5059182;28;20068;-68
2021/09/20 07:27:03;;;;;;;11.98;7.30;;;14.40;91.20;;;;;;5069747;28;20044;-66
2021/09/20 07:29:30;;;;;;;10.75;8.30;;;14.40;91.00;;;;;;5072229;28;20044;-66
2021/09/20 07:31:57;;;;;;;15.32;9.98;;;14.40;90.80;;;;;;5053679;28;20041;-63
2021/09/20 07:34:24;;;;;;;9.88;7.07;;;14.50;91.10;;;;;;5071607;28;20131;-65
2021/09/20 07:36:51;;;;;;;17.02;8.05;;;14.50;90.80;;;;;;5071302;28;20143;-64
2021/09/20 07:39:21;;;;;;;16.60;7.85;;;14.40;90.80;;;;;;5071856;28;20084;-63
2021/09/20 07:41:48;;;;;;;11.93;7.05;;;14.40;91.00;;;;;;5071230;28;20437;-62
2021/09/20 07:44:15;;;;;;;18.38;7.75;;;14.40;90.70;;;;;;5071563;28;20431;-63
2021/09/20 07:46:42;;;;;;;91.57;72.80;;;14.40;90.90;;;;;;5071369;28;20058;-64
2021/09/20 07:49:09;;;;;;;18.35;13.85;;;14.50;91.00;;;;;;5071335;28;20060;-64
2021/09/20 07:51:36;;;;;;;14.88;8.50;;;14.50;90.70;;;;;;5074277;28;20476;-65
2021/09/20 07:54:03;;;;;;;9.88;7.88;;;14.50;90.70;;;;;;5074220;28;20053;-65
2021/09/20 07:56:31;;;;;;;11.07;8.43;;;14.40;90.80;;;;;;5053555;28;20174;-66
2021/09/20 07:59:00;;;;;;;14.50;8.23;;;14.50;91.00;;;;;;5069702;28;20467;-66
2021/09/20 08:01:28;;;;;;;12.13;8.15;;;14.60;90.90;;;;;;5055715;28;20525;-66
2021/09/20 08:03:55;;;;;;;13.23;8.98;;;14.60;90.70;;;;;;5069269;28;20044;-65
2021/09/20 08:06:23;;;;;;;15.43;8.32;;;14.70;90.60;;;;;;5071823;28;20475;-65
2021/09/20 08:08:51;;;;;;;10.57;7.13;;;14.60;90.50;;;;;;5072595;28;20046;-65
2021/09/20 08:11:18;;;;;;;12.95;8.13;;;14.70;90.70;;;;;;5082576;28;20049;-66
2021/09/20 08:13:45;;;;;;;11.98;7.85;;;14.60;90.70;;;;;;5069688;28;20128;-65
2021/09/20 08:16:12;;;;;;;11.90;7.72;;;14.60;91.00;;;;;;5051876;28;20053;-66
2021/09/20 08:18:40;;;;;;;13.90;7.53;;;14.60;90.80;;;;;;5070132;28;20116;-65
2021/09/20 08:21:07;;;;;;;11.07;6.72;;;14.60;90.70;;;;;;5052728;28;20139;-65
2021/09/20 08:23:35;;;;;;;13.95;8.05;;;14.60;90.90;;;;;;5053284;28;20400;-65
2021/09/20 08:26:02;;;;;;;15.88;8.13;;;14.60;90.50;;;;;;5053239;28;20058;-65
2021/09/20 08:28:29;;;;;;;10.13;7.32;;;14.60;90.70;;;;;;5070267;28;20089;-65
2021/09/20 08:30:56;;;;;;;15.60;8.98;;;14.60;90.60;;;;;;5070808;28;20064;-64
2021/09/20 08:33:23;;;;;;;10.05;7.18;;;14.60;90.70;;;;;;5048980;28;20053;-64
2021/09/20 08:35:50;;;;;;;13.20;8.00;;;14.60;90.80;;;;;;5048295;28;20124;-64
2021/09/20 08:38:17;;;;;;;11.32;7.95;;;14.60;91.10;;;;;;5050497;28;20141;-64
2021/09/20 08:40:44;;;;;;;13.90;9.43;;;14.60;90.80;;;;;;5049109;28;20182;-64
2021/09/20 08:43:11;;;;;;;15.63;7.50;;;14.60;91.10;;;;;;5048576;28;20099;-64
2021/09/20 08:45:38;;;;;;;9.80;6.28;;;14.60;90.80;;;;;;5050528;28;20131;-64
2021/09/20 08:48:05;;;;;;;10.10;8.20;;;14.60;91.00;;;;;;5050817;28;20052;-63
2021/09/20 08:50:36;;;;;;;11.80;7.00;;;14.60;90.90;;;;;;5050163;28;20080;-64
2021/09/20 08:53:04;;;;;;;15.25;8.68;;;14.60;91.10;;;;;;5048909;28;20389;-64
2021/09/20 08:55:32;;;;;;;16.67;8.70;;;14.70;91.10;;;;;;5048835;28;20045;-66
2021/09/20 08:57:59;;;;;;;14.55;7.93;;;14.60;90.90;;;;;;5048598;28;20124;-64
2021/09/20 09:00:26;;;;;;;12.52;7.95;;;14.70;91.00;;;;;;5049073;28;20135;-66
2021/09/20 09:02:53;;;;;;;12.25;8.68;;;14.80;90.90;;;;;;5049519;28;20041;-65
2021/09/20 09:05:28;;;;;;;13.98;8.75;;;14.80;90.90;;;;;;5029091;28;20140;-66
2021/09/20 09:07:59;;;;;;;11.95;7.75;;;14.80;90.60;;;;;;5044766;28;20063;-65
2021/09/20 09:10:29;;;;;;;15.23;8.70;;;14.80;90.80;;;;;;5048813;28;20048;-65
2021/09/20 09:12:56;;;;;;;17.00;9.30;;;14.80;90.90;;;;;;5049215;28;20048;-66
2021/09/20 09:15:24;;;;;;;17.08;9.77;;;14.80;90.70;;;;;;5049296;28;20152;-65
2021/09/20 09:17:54;;;;;;;15.27;10.32;;;14.80;90.80;;;;;;5048478;28;20430;-66
2021/09/20 09:20:32;;;;;;;12.93;10.15;;;14.90;90.70;;;;;;5049995;28;20144;-65
2021/09/20 09:23:02;;;;;;;18.88;10.65;;;14.80;90.80;;;;;;5048042;28;20072;-64
2021/09/20 09:25:46;;;;;;;19.23;10.13;;;14.90;90.80;;;;;;5050233;28;20053;-65
2021/09/20 09:28:21;;;;;;;15.50;9.63;;;14.90;90.70;;;;;;5048466;28;20444;-64
2021/09/20 09:30:50;;;;;;;15.38;9.98;;;14.90;90.70;;;;;;5032286;28;20049;-65
2021/09/20 09:33:37;;;;;;;19.15;11.25;;;14.90;90.80;;;;;;5031732;28;20382;-65
2021/09/20 09:36:10;;;;;;;16.10;9.93;;;15.00;90.70;;;;;;5048440;28;20069;-64
2021/09/20 09:38:41;;;;;;;15.13;11.32;;;15.00;91.00;;;;;;5048803;28;20045;-64
2021/09/20 09:41:08;;;;;;;17.38;11.05;;;15.00;90.90;;;;;;5032186;28;20041;-64
2021/09/20 09:43:36;;;;;;;17.15;11.52;;;15.00;91.00;;;;;;5048257;28;20057;-64
2021/09/20 09:46:24;;;;;;;17.17;11.63;;;15.00;90.80;;;;;;5049976;28;20071;-64
2021/09/20 09:48:53;;;;;;;19.73;12.25;;;15.00;90.90;;;;;;5049830;28;20070;-65
2021/09/20 09:51:20;;;;;;;17.33;11.03;;;15.10;91.00;;;;;;5048068;28;20084;-64
2021/09/20 09:53:48;;;;;;;21.85;12.20;;;15.10;91.10;;;;;;5032339;28;20284;-64
2021/09/20 09:56:15;;;;;;;18.60;11.07;;;15.20;91.00;;;;;;5048326;28;20143;-64
2021/09/20 09:59:02;;;;;;;24.75;15.65;;;15.30;90.80;;;;;;5049272;28;20053;-65
2021/09/20 10:01:47;;;;;;;16.33;13.02;;;15.30;90.70;;;;;;5049873;28;20049;-64
2021/09/20 10:04:20;;;;;;;22.88;14.10;;;15.30;90.40;;;;;;5050159;28;20056;-64
2021/09/20 10:06:53;;;;;;;20.08;13.60;;;15.30;90.60;;;;;;5050791;28;20499;-64
2021/09/20 10:09:22;;;;;;;16.13;12.27;;;15.40;90.50;;;;;;5052563;28;20117;-64
2021/09/20 10:11:49;;;;;;;;;;;15.40;90.50;;;;;;5052985;28;20080;-64
2021/09/20 10:14:16;;;;;;;19.60;12.27;;;15.50;90.40;;;;;;5068152;28;20011;-63
2021/09/20 10:16:44;;;;;;;20.80;14.05;;;15.50;90.20;;;;;;5052224;28;20045;-63
2021/09/20 10:19:11;;;;;;;20.75;12.85;;;15.40;90.30;;;;;;5051751;28;20052;-64
2021/09/20 10:21:38;;;;;;;19.52;13.27;;;15.40;90.50;;;;;;5051519;28;20045;-64
2021/09/20 10:24:05;;;;;;;16.20;12.75;;;15.50;90.40;;;;;;5052908;28;20113;-64
2021/09/20 10:26:32;;;;;;;17.58;12.48;;;15.60;90.30;;;;;;5052989;28;20468;-64
2021/09/20 10:29:01;;;;;;;20.83;13.65;;;15.50;90.10;;;;;;5051369;28;20124;-64
2021/09/20 10:31:28;;;;;;;17.33;13.45;;;15.50;90.40;;;;;;5051683;28;20132;-64
2021/09/20 10:34:17;;;;;;;18.50;12.98;;;15.60;90.20;;;;;;5051341;28;20060;-64
2021/09/20 10:36:49;;;;;;;20.63;14.70;;;15.70;90.10;;;;;;5052333;28;20041;-64
2021/09/20 10:39:16;;;;;;;18.88;13.38;;;15.70;90.00;;;;;;5051658;28;20114;-64
2021/09/20 10:41:43;;;;;;;18.58;13.45;;;15.70;90.10;;;;;;5050870;28;20071;-64
2021/09/20 10:44:12;;;;;;;14.77;12.50;;;15.80;90.10;;;;;;5050378;28;20124;-64
2021/09/20 10:46:40;;;;;;;19.42;11.65;;;15.80;90.00;;;;;;5034374;28;20485;-64
2021/09/20 10:49:20;;;;;;;19.27;13.50;;;16.00;90.10;;;;;;5052723;28;20479;-64
2021/09/20 10:52:13;;;;;;;20.80;12.18;;;16.10;89.10;;;;;;5051828;28;20401;-64
2021/09/20 10:54:40;;;;;;;15.73;11.90;;;16.20;88.40;;;;;;5052611;28;20186;-64
2021/09/20 10:57:11;;;;;;;25.17;21.35;;;16.20;87.90;;;;;;5062992;28;20128;-66
2021/09/20 10:59:38;;;;;;;20.92;14.63;;;16.40;87.90;;;;;;5058740;28;20529;-66
2021/09/20 11:02:16;;;;;;;15.98;13.25;;;16.50;88.10;;;;;;5034069;28;20085;-65
2021/09/20 11:04:44;;;;;;;17.95;13.07;;;16.60;87.70;;;;;;5025744;28;20050;-65
2021/09/20 11:07:20;;;;;;;15.57;12.53;;;16.70;86.10;;;;;;5040246;28;20060;-71
2021/09/20 11:10:01;;;;;;;14.05;11.98;;;16.90;86.80;;;;;;5063390;28;20289;-67
2021/09/20 11:12:28;;;;;;;13.02;11.10;;;16.90;86.40;;;;;;5055725;28;20068;-70
2021/09/20 11:14:58;;;;;;;13.57;11.45;;;17.00;85.50;;;;;;5053949;28;20049;-68
2021/09/20 11:17:42;;;;;;;14.23;11.68;;;17.20;85.60;;;;;;5068764;28;20044;-67
2021/09/20 11:20:25;;;;;;;16.45;11.60;;;17.30;83.80;;;;;;5052263;28;20128;-68
2021/09/20 11:23:25;;;;;;;14.38;12.18;;;17.40;84.70;;;;;;5040225;28;20056;-71
2021/09/20 11:26:15;;;;;;;12.88;11.52;;;17.40;83.30;;;;;;5060079;28;20065;-68
2021/09/20 11:28:48;;;;;;;15.40;11.88;;;17.50;83.60;;;;;;5050067;28;20080;-69
2021/09/20 11:31:18;;;;;;;19.63;13.32;;;17.60;82.60;;;;;;5051008;28;20060;-69
2021/09/20 11:33:48;;;;;;;19.35;12.45;;;17.60;83.30;;;;;;5050212;28;20107;-69
2021/09/20 11:36:28;;;;;;;16.25;12.65;;;17.60;83.00;;;;;;5050396;28;20061;-69
2021/09/20 11:39:16;;;;;;;19.23;12.13;;;17.70;83.60;;;;;;5051723;28;20094;-69
2021/09/20 11:41:46;;;;;;;13.05;11.75;;;18.00;81.80;;;;;;5050321;28;20045;-67
2021/09/20 11:44:15;;;;;;;14.88;12.27;;;18.00;81.40;;;;;;5049701;28;20068;-67
2021/09/20 11:46:42;;;;;;;14.20;11.82;;;18.20;82.60;;;;;;5049574;28;20036;-67
2021/09/20 11:49:12;;;;;;;42.03;36.72;;;18.30;82.20;;;;;;5053906;28;20048;-66
2021/09/20 11:51:39;;;;;;;24.50;18.08;;;18.40;82.10;;;;;;5056118;28;20136;-67
2021/09/20 11:54:29;;;;;;;16.27;12.80;;;18.40;80.60;;;;;;5047998;28;20045;-68
2021/09/20 11:57:20;;;;;;;13.82;12.10;;;18.20;81.00;;;;;;5050514;28;20139;-65
2021/09/20 11:59:50;;;;;;;13.30;11.40;;;18.20;81.00;;;;;;5051690;28;20045;-66
2021/09/20 12:02:28;;;;;;;15.23;11.60;;;18.20;80.90;;;;;;5037404;28;20057;-66
2021/09/20 12:04:55;;;;;;;14.75;12.05;;;18.20;81.60;;;;;;5062262;28;20047;-66
2021/09/20 12:07:55;;;;;;;13.80;12.32;;;18.20;81.30;;;;;;5054813;28;20059;-69
2021/09/20 12:10:24;;;;;;;14.93;11.80;;;18.20;81.60;;;;;;5051196;28;20093;-67
2021/09/20 12:12:53;;;;;;;16.63;12.45;;;18.30;82.60;;;;;;5048046;28;20067;-68
2021/09/20 12:15:23;;;;;;;13.23;11.82;;;18.40;81.70;;;;;;5051529;28;20064;-67
2021/09/20 12:17:59;;;;;;;16.13;13.00;;;18.30;81.10;;;;;;5060736;28;20079;-67
2021/09/20 12:20:28;;;;;;;16.88;12.68;;;18.20;81.00;;;;;;5051602;28;20439;-67
2021/09/20 12:22:57;;;;;;;14.45;12.93;;;18.30;82.10;;;;;;5054154;28;20508;-67
2021/09/20 12:25:35;;;;;;;15.43;12.48;;;18.20;81.10;;;;;;5050998;28;20069;-66
2021/09/20 12:28:03;;;;;;;14.35;11.07;;;18.20;81.60;;;;;;5049050;28;20073;-66
2021/09/20 12:30:31;;;;;;;12.75;11.55;;;18.30;81.30;;;;;;5050516;28;20125;-66
2021/09/20 12:33:07;;;;;;;194.07;157.13;;;18.40;80.30;;;;;;5033587;28;20083;-66
2021/09/20 12:35:35;;;;;;;77.57;67.47;;;18.50;81.10;;;;;;5049445;28;20049;-69
2021/09/20 12:38:25;;;;;;;15.70;12.73;;;18.70;80.70;;;;;;5056764;28;20051;-67
2021/09/20 12:40:52;;;;;;;12.52;11.07;;;18.80;79.50;;;;;;5051460;28;20044;-66
2021/09/20 12:43:25;;;;;;;15.32;12.45;;;18.80;79.50;;;;;;5042503;28;20044;-66
2021/09/20 12:45:52;;;;;;;12.88;11.63;;;18.90;79.60;;;;;;5034010;28;20052;-66
2021/09/20 12:48:34;;;;;;;14.40;12.80;;;18.80;78.60;;;;;;5037360;28;20040;-64